Time;durP1;ratioP1;P1;durP2;ratioP2;P2;SDS_P1;SDS_P2;PMS_P1;PMS_P2;Temp;Humidity;BMP_temperature;BMP_pressure;BME280_temperature;BME280_humidity;BME280_pressure;Samples;Min_cycle;Max_cycle;Signal;HPM_P1;HPM_P2
2021/07/26 00:02:06;;;;;;;7.35;3.28;;;;;;;;;;4677169;30;20120;-78
2021/07/26 00:04:32;;;;;;;4.15;3.05;;;;;;;;;;4674160;30;20075;-78
2021/07/26 00:06:57;;;;;;;6.88;3.22;;;;;;;;;;4665055;30;20030;-78
2021/07/26 00:09:23;;;;;;;6.60;3.65;;;;;;;;;;4678087;30;20104;-78
2021/07/26 00:11:48;;;;;;;5.88;3.60;;;;;;;;;;4692099;30;20515;-78
2021/07/26 00:14:13;;;;;;;6.47;3.50;;;;;;;;;;4679878;30;20041;-78
2021/07/26 00:16:39;;;;;;;5.38;3.92;;;;;;;;;;4671504;30;20444;-78
2021/07/26 00:19:04;;;;;;;7.28;3.95;;;;;;;;;;4676218;30;20038;-78
2021/07/26 00:21:30;;;;;;;5.25;3.78;;;;;;;;;;4670866;30;20044;-78
2021/07/26 00:23:55;;;;;;;5.97;4.20;;;;;;;;;;4696233;30;20038;-78
2021/07/26 00:26:21;;;;;;;6.55;3.90;;;;;;;;;;4680588;30;20152;-78
2021/07/26 00:28:46;;;;;;;6.75;4.10;;;;;;;;;;4677821;30;20044;-78
2021/07/26 00:31:12;;;;;;;6.25;4.00;;;;;;;;;;4680729;30;20408;-78
2021/07/26 00:34:19;;;;;;;7.57;3.67;;;;;;;;;;4679103;30;20042;-78
2021/07/26 00:36:50;;;;;;;8.05;4.72;;;;;;;;;;4687921;30;20097;-78
2021/07/26 00:39:20;;;;;;;6.03;3.67;;;;;;;;;;4679719;30;20044;-78
2021/07/26 00:41:47;;;;;;;8.02;4.28;;;;;;;;;;4695593;30;20045;-78
2021/07/26 00:44:14;;;;;;;6.20;4.00;;;;;;;;;;4674734;30;20045;-78
2021/07/26 00:46:40;;;;;;;8.57;4.05;;;;;;;;;;4679621;30;20387;-78
2021/07/26 00:49:08;;;;;;;5.38;3.85;;;;;;;;;;4679605;30;20042;-78
2021/07/26 00:51:35;;;;;;;5.85;4.20;;;;;;;;;;4689772;30;20066;-78
2021/07/26 00:54:00;;;;;;;5.82;4.20;;;;;;;;;;4665130;30;20124;-78
2021/07/26 00:56:26;;;;;;;6.28;3.92;;;;;;;;;;4673414;30;20100;-78
2021/07/26 00:58:51;;;;;;;5.60;4.25;;;;;;;;;;4668818;30;20057;-78
2021/07/26 01:01:17;;;;;;;7.32;4.20;;;;;;;;;;4682202;30;20391;-78
2021/07/26 01:03:43;;;;;;;7.28;4.80;;;;;;;;;;4696738;30;20045;-78
2021/07/26 01:06:10;;;;;;;5.35;4.40;;;;;;;;;;4692737;30;20042;-78
2021/07/26 01:08:36;;;;;;;5.68;4.15;;;;;;;;;;4694107;30;20034;-78
2021/07/26 01:11:05;;;;;;;10.60;4.63;;;;;;;;;;4700773;30;20475;-78
2021/07/26 01:13:32;;;;;;;6.05;4.13;;;;;;;;;;4693339;30;20100;-78
2021/07/26 01:15:57;;;;;;;5.90;4.20;;;;;;;;;;4695067;30;20057;-78
2021/07/26 01:18:27;;;;;;;5.85;4.50;;;;;;;;;;4670894;30;20033;-78
2021/07/26 01:21:16;;;;;;;6.50;3.97;;;;;;;;;;4682997;30;20041;-78
2021/07/26 01:23:44;;;;;;;7.40;5.07;;;;;;;;;;4694117;30;20480;-78
2021/07/26 01:26:11;;;;;;;7.88;4.60;;;;;;;;;;4697881;30;20057;-78
2021/07/26 01:28:44;;;;;;;7.93;4.65;;;;;;;;;;4693508;30;20030;-78
2021/07/26 01:31:12;;;;;;;7.45;5.38;;;;;;;;;;4692135;30;20042;-78
2021/07/26 01:33:39;;;;;;;7.15;4.32;;;;;;;;;;4698309;30;20042;-78
2021/07/26 01:36:06;;;;;;;7.72;4.55;;;;;;;;;;4686910;30;20483;-78
2021/07/26 01:38:31;;;;;;;8.90;4.95;;;;;;;;;;4693494;30;20041;-78
2021/07/26 01:41:02;;;;;;;8.30;5.10;;;;;;;;;;4671104;30;20064;-78
2021/07/26 01:43:32;;;;;;;7.25;4.72;;;;;;;;;;4679464;30;20033;-78
2021/07/26 01:46:06;;;;;;;6.55;4.90;;;;;;;;;;4680485;30;20128;-78
2021/07/26 01:48:43;;;;;;;6.85;4.82;;;;;;;;;;4697522;30;20108;-78
2021/07/26 01:51:16;;;;;;;7.82;5.20;;;;;;;;;;4677727;30;20124;-78
2021/07/26 01:53:44;;;;;;;8.05;5.15;;;;;;;;;;4681007;30;20061;-78
2021/07/26 01:56:10;;;;;;;10.10;5.05;;;;;;;;;;4668251;30;20053;-78
2021/07/26 01:58:36;;;;;;;7.68;4.60;;;;;;;;;;4672325;30;20038;-78
2021/07/26 02:01:01;;;;;;;7.47;5.10;;;;;;;;;;4669879;30;20041;-78
2021/07/26 02:03:28;;;;;;;6.72;4.75;;;;;;;;;;4695946;30;20038;-78
2021/07/26 02:05:54;;;;;;;7.65;4.70;;;;;;;;;;4669169;30;20439;-78
2021/07/26 02:08:19;;;;;;;6.38;4.72;;;;;;;;;;4675934;30;20041;-78
2021/07/26 02:10:44;;;;;;;6.72;4.63;;;;;;;;;;4675299;30;20060;-78
2021/07/26 02:13:10;;;;;;;7.35;4.40;;;;;;;;;;4691290;30;20124;-78
2021/07/26 02:15:35;;;;;;;6.25;4.80;;;;;;;;;;4670080;30;20044;-78
2021/07/26 02:18:00;;;;;;;5.97;5.00;;;;;;;;;;4682707;30;20029;-78
2021/07/26 02:20:26;;;;;;;7.50;4.60;;;;;;;;;;4677120;30;20046;-78
2021/07/26 02:22:51;;;;;;;7.82;4.60;;;;;;;;;;4672838;30;20451;-78
2021/07/26 02:25:19;;;;;;;7.78;5.05;;;;;;;;;;4678189;30;20085;-78
2021/07/26 02:27:45;;;;;;;7.70;4.97;;;;;;;;;;4671153;30;20365;-78
2021/07/26 02:30:11;;;;;;;6.90;4.38;;;;;;;;;;4679113;30;20053;-78
2021/07/26 02:32:36;;;;;;;8.25;4.97;;;;;;;;;;4676066;30;20038;-78
2021/07/26 02:35:02;;;;;;;5.70;4.50;;;;;;;;;;4681474;30;20562;-78
2021/07/26 02:37:27;;;;;;;7.57;4.75;;;;;;;;;;4668405;30;20045;-78
2021/07/26 02:39:53;;;;;;;9.73;4.82;;;;;;;;;;4680139;30;20096;-78
2021/07/26 02:42:18;;;;;;;9.65;5.38;;;;;;;;;;4680996;30;20505;-78
2021/07/26 02:44:44;;;;;;;6.20;4.70;;;;;;;;;;4668409;30;20044;-78
2021/07/26 02:47:09;;;;;;;11.27;4.88;;;;;;;;;;4667988;30;20034;-78
2021/07/26 02:49:34;;;;;;;6.85;4.97;;;;;;;;;;4680361;30;20046;-78
2021/07/26 02:52:00;;;;;;;9.20;4.47;;;;;;;;;;4682999;30;20046;-78
2021/07/26 02:54:25;;;;;;;6.60;4.43;;;;;;;;;;4675223;30;20100;-78
2021/07/26 02:56:51;;;;;;;8.10;5.15;;;;;;;;;;4691878;30;20045;-78
2021/07/26 02:59:16;;;;;;;7.13;4.93;;;;;;;;;;4680568;30;20519;-78
2021/07/26 03:01:41;;;;;;;7.97;4.78;;;;;;;;;;4680647;30;20486;-78
2021/07/26 03:04:07;;;;;;;7.35;4.82;;;;;;;;;;4673599;30;20037;-78
2021/07/26 03:06:32;;;;;;;8.73;5.47;;;;;;;;;;4673941;30;20530;-78
2021/07/26 03:08:58;;;;;;;6.13;4.45;;;;;;;;;;4670159;30;20041;-78
2021/07/26 03:11:23;;;;;;;7.38;5.28;;;;;;;;;;4692897;30;20073;-78
2021/07/26 03:13:48;;;;;;;6.35;5.10;;;;;;;;;;4680529;30;20046;-78
2021/07/26 03:16:15;;;;;;;6.40;5.05;;;;;;;;;;4684272;30;20480;-78
2021/07/26 03:18:41;;;;;;;6.97;4.80;;;;;;;;;;4693099;30;20055;-78
2021/07/26 03:21:11;;;;;;;8.40;5.28;;;;;;;;;;4691061;30;20119;-78
2021/07/26 03:23:37;;;;;;;7.40;5.20;;;;;;;;;;4681272;30;20025;-78
2021/07/26 03:26:02;;;;;;;6.03;4.90;;;;;;;;;;4677698;30;20188;-78
2021/07/26 03:28:27;;;;;;;7.78;5.03;;;;;;;;;;4676326;30;20042;-79
2021/07/26 03:30:53;;;;;;;7.50;5.10;;;;;;;;;;4654100;30;20056;-78
2021/07/26 03:33:18;;;;;;;6.95;5.25;;;;;;;;;;4684104;30;20038;-78
2021/07/26 03:35:44;;;;;;;8.90;5.38;;;;;;;;;;4674860;30;20479;-78
2021/07/26 03:38:09;;;;;;;6.47;4.90;;;;;;;;;;4690661;30;20124;-78
2021/07/26 03:40:35;;;;;;;6.72;5.35;;;;;;;;;;4674405;30;20045;-78
2021/07/26 03:43:01;;;;;;;8.05;4.97;;;;;;;;;;4679553;30;20115;-78
2021/07/26 03:45:28;;;;;;;7.60;4.93;;;;;;;;;;4692492;30;20538;-78
2021/07/26 03:47:56;;;;;;;6.88;4.97;;;;;;;;;;4678853;30;20030;-78
2021/07/26 03:50:22;;;;;;;5.85;4.50;;;;;;;;;;4676010;30;20041;-78
2021/07/26 03:52:53;;;;;;;6.88;4.45;;;;;;;;;;4695030;30;20038;-78
2021/07/26 03:55:23;;;;;;;7.88;4.75;;;;;;;;;;4676285;30;20034;-78
2021/07/26 03:57:50;;;;;;;8.70;5.13;;;;;;;;;;4695171;30;20081;-78
2021/07/26 04:00:17;;;;;;;7.25;5.10;;;;;;;;;;4680054;30;20586;-78
2021/07/26 04:02:46;;;;;;;6.32;4.90;;;;;;;;;;4693177;30;20111;-78
2021/07/26 04:05:21;;;;;;;7.57;4.60;;;;;;;;;;4690321;30;20041;-78
2021/07/26 04:07:48;;;;;;;6.85;4.68;;;;;;;;;;4674729;30;20052;-78
2021/07/26 04:10:14;;;;;;;6.28;4.88;;;;;;;;;;4677771;30;20124;-78
2021/07/26 04:12:43;;;;;;;8.50;5.10;;;;;;;;;;4672886;30;20618;-78
2021/07/26 04:15:10;;;;;;;8.07;4.93;;;;;;;;;;4689619;30;20087;-78
2021/07/26 04:17:37;;;;;;;6.60;4.63;;;;;;;;;;4672597;30;20040;-78
2021/07/26 04:20:04;;;;;;;6.50;4.80;;;;;;;;;;4676537;30;20036;-78
2021/07/26 04:22:30;;;;;;;7.53;4.55;;;;;;;;;;4689369;30;20061;-78
2021/07/26 04:24:55;;;;;;;8.35;4.82;;;;;;;;;;4688344;30;20038;-78
2021/07/26 04:27:21;;;;;;;7.05;4.88;;;;;;;;;;4674407;30;20408;-78
2021/07/26 04:29:46;;;;;;;6.45;4.88;;;;;;;;;;4647584;30;20048;-78
2021/07/26 04:32:12;;;;;;;7.43;4.75;;;;;;;;;;4679636;30;20066;-78
2021/07/26 04:34:37;;;;;;;6.25;4.47;;;;;;;;;;4675562;30;20465;-78
2021/07/26 04:37:03;;;;;;;9.00;4.72;;;;;;;;;;4672662;30;20035;-78
2021/07/26 04:39:28;;;;;;;9.07;4.93;;;;;;;;;;4669832;30;20186;-78
2021/07/26 04:41:53;;;;;;;7.15;4.90;;;;;;;;;;4645563;30;20050;-78
2021/07/26 04:44:19;;;;;;;7.40;4.70;;;;;;;;;;4680262;30;20038;-78
2021/07/26 04:46:44;;;;;;;7.57;4.63;;;;;;;;;;4680669;30;20069;-78
2021/07/26 04:49:09;;;;;;;9.23;4.97;;;;;;;;;;4647412;30;20065;-78
2021/07/26 04:51:35;;;;;;;7.53;4.70;;;;;;;;;;4646265;30;20511;-78
2021/07/26 04:54:00;;;;;;;7.55;5.25;;;;;;;;;;4662688;30;20053;-78
2021/07/26 04:56:26;;;;;;;7.18;4.85;;;;;;;;;;4666642;30;20088;-78
2021/07/26 04:58:51;;;;;;;6.25;4.53;;;;;;;;;;4682369;30;20132;-78
2021/07/26 05:01:17;;;;;;;8.65;5.47;;;;;;;;;;4670618;30;20133;-78
2021/07/26 05:03:42;;;;;;;7.72;5.28;;;;;;;;;;4665108;30;20042;-78
2021/07/26 05:06:08;;;;;;;8.38;5.03;;;;;;;;;;4658463;30;20050;-78
2021/07/26 05:08:33;;;;;;;7.65;5.20;;;;;;;;;;4686429;30;20076;-78
2021/07/26 05:10:58;;;;;;;9.43;5.25;;;;;;;;;;4671595;30;20046;-78
2021/07/26 05:13:24;;;;;;;9.30;5.18;;;;;;;;;;4661463;30;20080;-78
2021/07/26 05:15:49;;;;;;;9.57;5.40;;;;;;;;;;4685078;30;20124;-78
2021/07/26 05:18:15;;;;;;;8.20;5.70;;;;;;;;;;4684727;30;20030;-78
2021/07/26 05:20:41;;;;;;;10.93;5.47;;;;;;;;;;4654809;30;20539;-78
2021/07/26 05:23:10;;;;;;;7.57;5.45;;;;;;;;;;4667428;30;20042;-78
2021/07/26 05:25:36;;;;;;;7.57;5.30;;;;;;;;;;4665394;30;20068;-78
2021/07/26 05:28:02;;;;;;;7.88;5.57;;;;;;;;;;4676215;30;20054;-78
2021/07/26 05:30:27;;;;;;;8.18;5.90;;;;;;;;;;4674186;30;20113;-78
2021/07/26 05:32:53;;;;;;;8.73;5.70;;;;;;;;;;4669108;30;20054;-78
2021/07/26 05:35:19;;;;;;;9.00;5.47;;;;;;;;;;4677813;30;20052;-78
2021/07/26 05:37:45;;;;;;;10.55;6.15;;;;;;;;;;4682725;30;20124;-78
2021/07/26 05:40:11;;;;;;;10.68;5.68;;;;;;;;;;4679867;30;20051;-78
2021/07/26 05:42:36;;;;;;;7.57;5.80;;;;;;;;;;4674800;30;20104;-78
2021/07/26 05:45:04;;;;;;;9.77;6.00;;;;;;;;;;4692783;30;20030;-78
2021/07/26 05:47:30;;;;;;;9.57;6.13;;;;;;;;;;4668215;30;20045;-79
2021/07/26 05:49:56;;;;;;;10.23;6.32;;;;;;;;;;4684352;30;20476;-78
2021/07/26 05:52:21;;;;;;;10.57;6.18;;;;;;;;;;4668533;30;20136;-78
2021/07/26 05:54:47;;;;;;;8.73;6.00;;;;;;;;;;4664911;30;20040;-78
2021/07/26 05:57:15;;;;;;;10.43;5.97;;;;;;;;;;4668458;30;20100;-78
2021/07/26 05:59:41;;;;;;;10.10;5.43;;;;;;;;;;4679757;30;20030;-78
2021/07/26 06:02:06;;;;;;;8.13;6.03;;;;;;;;;;4691439;30;20480;-78
2021/07/26 06:04:32;;;;;;;11.00;6.47;;;;;;;;;;4695381;30;20068;-78
2021/07/26 06:06:58;;;;;;;7.80;5.85;;;;;;;;;;4673510;30;20045;-78
2021/07/26 06:09:24;;;;;;;8.23;5.43;;;;;;;;;;4675917;30;20511;-78
2021/07/26 06:11:51;;;;;;;7.93;6.03;;;;;;;;;;4678127;30;20150;-78
2021/07/26 06:14:18;;;;;;;7.68;5.75;;;;;;;;;;4678743;30;20128;-78
2021/07/26 06:16:46;;;;;;;10.25;5.82;;;;;;;;;;4681396;30;20046;-78
2021/07/26 06:19:12;;;;;;;9.50;5.63;;;;;;;;;;4692786;30;20095;-78
2021/07/26 06:21:46;;;;;;;10.30;6.25;;;;;;;;;;4694638;30;20038;-79
2021/07/26 06:24:13;;;;;;;8.27;6.05;;;;;;;;;;4670407;30;20052;-79
2021/07/26 06:26:38;;;;;;;7.80;6.05;;;;;;;;;;4682989;30;20064;-79
2021/07/26 06:29:04;;;;;;;8.48;5.70;;;;;;;;;;4682848;30;20119;-78
2021/07/26 06:31:32;;;;;;;8.93;5.40;;;;;;;;;;4671249;30;20041;-78
2021/07/26 06:33:58;;;;;;;7.82;5.78;;;;;;;;;;4679851;30;20037;-79
2021/07/26 06:36:24;;;;;;;7.45;5.60;;;;;;;;;;4692607;30;20038;-78
2021/07/26 06:38:49;;;;;;;8.68;5.55;;;;;;;;;;4666167;30;20044;-79
2021/07/26 06:41:14;;;;;;;7.20;5.25;;;;;;;;;;4676010;30;20042;-78
2021/07/26 06:43:40;;;;;;;7.95;5.50;;;;;;;;;;4669078;30;20068;-78
2021/07/26 06:46:06;;;;;;;12.48;6.10;;;;;;;;;;4676436;30;20180;-78
2021/07/26 06:48:32;;;;;;;6.72;5.20;;;;;;;;;;4690728;30;20041;-79
2021/07/26 06:50:58;;;;;;;8.60;5.53;;;;;;;;;;4691724;30;20044;-79
2021/07/26 06:53:25;;;;;;;8.40;6.25;;;;;;;;;;4679461;30;20586;-79
2021/07/26 06:55:50;;;;;;;8.52;7.40;;;;;;;;;;4677260;30;20049;-79
2021/07/26 06:58:16;;;;;;;9.88;8.50;;;;;;;;;;4682759;30;20037;-79
2021/07/26 07:00:41;;;;;;;11.68;7.80;;;;;;;;;;4670772;30;20077;-79
2021/07/26 07:03:06;;;;;;;11.88;8.18;;;;;;;;;;4682398;30;20074;-79
2021/07/26 07:05:32;;;;;;;11.05;8.38;;;;;;;;;;4677868;30;20412;-79
2021/07/26 07:07:57;;;;;;;9.60;7.57;;;;;;;;;;4676204;30;20412;-79
2021/07/26 07:10:23;;;;;;;10.02;7.25;;;;;;;;;;4680694;30;20507;-79
2021/07/26 07:12:51;;;;;;;9.82;7.25;;;;;;;;;;4679395;30;20072;-79
2021/07/26 07:15:22;;;;;;;9.55;7.18;;;;;;;;;;4671904;30;20104;-79
2021/07/26 07:17:48;;;;;;;10.05;6.90;;;;;;;;;;4683364;30;20030;-80
2021/07/26 07:20:15;;;;;;;7.82;6.15;;;;;;;;;;4685816;30;21610;-80
2021/07/26 07:22:40;;;;;;;9.45;6.68;;;;;;;;;;4682348;30;20075;-79
2021/07/26 07:25:06;;;;;;;9.05;6.25;;;;;;;;;;4675937;30;20128;-79
2021/07/26 07:27:32;;;;;;;8.77;6.65;;;;;;;;;;4682713;30;20557;-80
2021/07/26 07:29:57;;;;;;;9.35;6.35;;;;;;;;;;4672330;30;20037;-80
2021/07/26 07:32:23;;;;;;;9.60;6.65;;;;;;;;;;4677487;30;20046;-79
2021/07/26 07:34:48;;;;;;;8.65;6.25;;;;;;;;;;4680504;30;20065;-79
2021/07/26 07:37:14;;;;;;;11.05;6.90;;;;;;;;;;4687837;30;20036;-80
2021/07/26 07:39:39;;;;;;;8.00;6.53;;;;;;;;;;4685862;30;20042;-79
2021/07/26 07:42:05;;;;;;;7.82;6.32;;;;;;;;;;4685635;30;20037;-80
2021/07/26 07:44:34;;;;;;;8.07;5.65;;;;;;;;;;4677073;30;20048;-79
2021/07/26 07:47:02;;;;;;;11.13;6.28;;;;;;;;;;4675251;30;20061;-80
2021/07/26 07:49:28;;;;;;;10.30;5.40;;;;;;;;;;4689843;30;20049;-79
2021/07/26 07:51:54;;;;;;;8.35;5.97;;;;;;;;;;4683854;30;20105;-79
2021/07/26 07:54:20;;;;;;;7.68;5.95;;;;;;;;;;4685039;30;20040;-79
2021/07/26 07:56:47;;;;;;;7.60;6.00;;;;;;;;;;4675959;30;20030;-79
2021/07/26 07:59:12;;;;;;;7.40;5.63;;;;;;;;;;4664464;30;20056;-79
2021/07/26 08:01:38;;;;;;;8.80;5.78;;;;;;;;;;4685391;30;20038;-79
2021/07/26 08:04:03;;;;;;;7.13;5.60;;;;;;;;;;4700791;30;20069;-80
2021/07/26 08:06:30;;;;;;;13.02;6.00;;;;;;;;;;4694277;30;20400;-79
2021/07/26 08:08:55;;;;;;;8.68;5.80;;;;;;;;;;4686418;30;20046;-79
2021/07/26 08:11:21;;;;;;;7.13;6.10;;;;;;;;;;4677487;30;20045;-80
2021/07/26 08:13:46;;;;;;;9.30;5.80;;;;;;;;;;4674481;30;20045;-79
2021/07/26 08:16:12;;;;;;;8.02;5.72;;;;;;;;;;4682221;30;20052;-79
2021/07/26 08:18:37;;;;;;;7.53;5.60;;;;;;;;;;4695689;30;20045;-79
2021/07/26 08:21:02;;;;;;;8.85;5.20;;;;;;;;;;4676401;30;20131;-79
2021/07/26 08:23:28;;;;;;;6.88;5.32;;;;;;;;;;4689356;30;20116;-79
2021/07/26 08:25:53;;;;;;;8.05;5.60;;;;;;;;;;4670306;30;20530;-79
2021/07/26 08:28:19;;;;;;;8.38;5.22;;;;;;;;;;4665194;30;20045;-79
2021/07/26 08:30:44;;;;;;;5.43;4.70;;;;;;;;;;4680187;30;20049;-79
2021/07/26 08:33:10;;;;;;;5.60;4.70;;;;;;;;;;4705118;30;20144;-79
2021/07/26 08:35:36;;;;;;;9.05;5.20;;;;;;;;;;4677799;30;20049;-79
2021/07/26 08:38:02;;;;;;;6.47;5.00;;;;;;;;;;4670523;30;20041;-80
2021/07/26 08:40:29;;;;;;;6.03;4.70;;;;;;;;;;4689115;30;20486;-79
2021/07/26 08:42:56;;;;;;;6.82;4.55;;;;;;;;;;4697316;30;20040;-79
2021/07/26 08:45:22;;;;;;;6.50;4.90;;;;;;;;;;4683262;30;20607;-79
2021/07/26 08:47:48;;;;;;;5.53;4.70;;;;;;;;;;4696895;30;20045;-79
2021/07/26 08:50:19;;;;;;;6.90;5.25;;;;;;;;;;4671194;30;20132;-79
2021/07/26 08:52:49;;;;;;;10.13;5.38;;;;;;;;;;4677103;30;20049;-79
2021/07/26 08:55:19;;;;;;;6.80;5.15;;;;;;;;;;4672886;30;20045;-79
2021/07/26 08:57:46;;;;;;;5.82;5.22;;;;;;;;;;4698106;30;20128;-79
2021/07/26 09:00:15;;;;;;;12.07;5.00;;;;;;;;;;4669463;30;20055;-79
2021/07/26 09:02:40;;;;;;;7.15;5.50;;;;;;;;;;4693981;30;20130;-79
2021/07/26 09:05:07;;;;;;;10.05;5.00;;;;;;;;;;4672676;30;20433;-79
2021/07/26 09:07:36;;;;;;;6.20;4.90;;;;;;;;;;4690488;30;20046;-79
2021/07/26 09:10:11;;;;;;;6.55;4.47;;;;;;;;;;4697121;30;20038;-79
2021/07/26 09:12:39;;;;;;;5.40;4.70;;;;;;;;;;4702748;30;20049;-79
2021/07/26 09:15:05;;;;;;;6.40;5.25;;;;;;;;;;4684130;30;20045;-79
2021/07/26 09:17:38;;;;;;;6.68;5.00;;;;;;;;;;4668884;30;20064;-79
2021/07/26 09:20:03;;;;;;;;;;;;;;;;;;4681991;30;20042;-79
2021/07/26 09:22:36;;;;;;;8.52;4.90;;;;;;;;;;4700830;30;19923;-79
2021/07/26 09:25:21;;;;;;;6.38;4.10;;;;;;;;;;4681893;30;20049;-79
2021/07/26 09:27:57;;;;;;;5.25;3.75;;;;;;;;;;4676989;30;20057;-79
2021/07/26 09:30:23;;;;;;;4.35;3.40;;;;;;;;;;4684350;30;20068;-79
2021/07/26 09:32:50;;;;;;;4.70;3.42;;;;;;;;;;4668556;30;20542;-79
2021/07/26 09:35:15;;;;;;;4.80;3.30;;;;;;;;;;4667335;30;20069;-79
2021/07/26 09:37:41;;;;;;;5.47;2.92;;;;;;;;;;4677544;30;20057;-79
2021/07/26 09:40:21;;;;;;;3.85;3.15;;;;;;;;;;4672031;30;20117;-79
2021/07/26 09:42:47;;;;;;;4.80;3.40;;;;;;;;;;4674443;30;20045;-79
2021/07/26 09:45:22;;;;;;;6.03;3.45;;;;;;;;;;4693064;30;20053;-79
2021/07/26 09:48:08;;;;;;;4.53;3.20;;;;;;;;;;4690930;30;20494;-79
2021/07/26 09:50:38;;;;;;;4.20;3.53;;;;;;;;;;4686659;30;20084;-78
2021/07/26 09:53:22;;;;;;;6.80;3.88;;;;;;;;;;4662194;30;20038;-79
2021/07/26 09:55:55;;;;;;;4.05;3.65;;;;;;;;;;4689935;30;20167;-79
2021/07/26 09:58:35;;;;;;;7.10;3.75;;;;;;;;;;4686675;30;20495;-79
2021/07/26 10:01:01;;;;;;;5.45;3.78;;;;;;;;;;4671307;30;20041;-79
2021/07/26 10:03:27;;;;;;;7.45;3.85;;;;;;;;;;4669765;30;20068;-79
2021/07/26 10:05:54;;;;;;;6.93;3.40;;;;;;;;;;4681888;30;20844;-79
2021/07/26 10:08:21;;;;;;;6.63;3.38;;;;;;;;;;4670238;30;20654;-79
2021/07/26 10:10:47;;;;;;;5.22;3.50;;;;;;;;;;4676675;30;20784;-79
2021/07/26 10:13:13;;;;;;;5.65;3.97;;;;;;;;;;4683716;30;20171;-79
2021/07/26 10:15:39;;;;;;;4.50;3.70;;;;;;;;;;4690906;30;20064;-79
2021/07/26 10:18:05;;;;;;;3.70;3.30;;;;;;;;;;4686939;30;20048;-78
2021/07/26 10:20:35;;;;;;;6.68;3.30;;;;;;;;;;4674383;30;20523;-79
2021/07/26 10:23:15;;;;;;;4.65;3.40;;;;;;;;;;4673761;30;20071;-79
2021/07/26 10:25:56;;;;;;;4.85;3.47;;;;;;;;;;4689192;30;20136;-79
2021/07/26 10:28:34;;;;;;;4.88;4.05;;;;;;;;;;4694986;30;20046;-79
2021/07/26 10:30:59;;;;;;;6.00;3.40;;;;;;;;;;4685757;30;20033;-78
2021/07/26 10:33:25;;;;;;;5.53;3.70;;;;;;;;;;4680419;30;20037;-79
2021/07/26 10:35:52;;;;;;;4.65;2.90;;;;;;;;;;4677472;30;20041;-79
2021/07/26 10:38:47;;;;;;;4.43;3.20;;;;;;;;;;4674447;30;20037;-79
2021/07/26 10:41:44;;;;;;;4.78;3.10;;;;;;;;;;4671848;30;20049;-79
2021/07/26 10:44:32;;;;;;;3.78;2.85;;;;;;;;;;4676882;30;20365;-79
2021/07/26 10:46:59;;;;;;;5.07;2.92;;;;;;;;;;4672680;30;20038;-79
2021/07/26 10:49:43;;;;;;;6.88;3.08;;;;;;;;;;4689874;30;20040;-79
2021/07/26 10:52:21;;;;;;;4.50;2.88;;;;;;;;;;4692035;30;20044;-78
2021/07/26 10:54:46;;;;;;;4.72;2.47;;;;;;;;;;4673188;30;20053;-79
2021/07/26 10:57:15;;;;;;;3.33;1.88;;;;;;;;;;4670813;30;20049;-79
2021/07/26 11:00:19;;;;;;;2.53;1.75;;;;;;;;;;4663999;30;20045;-79
2021/07/26 11:02:46;;;;;;;4.05;2.30;;;;;;;;;;4686614;30;20049;-79
2021/07/26 11:05:27;;;;;;;5.13;2.85;;;;;;;;;;4688812;30;20049;-78
2021/07/26 11:08:18;;;;;;;4.03;3.10;;;;;;;;;;4696243;30;20500;-78
2021/07/26 11:10:44;;;;;;;4.43;3.25;;;;;;;;;;4684990;30;20063;-79
2021/07/26 11:13:10;;;;;;;4.63;3.30;;;;;;;;;;4697465;30;20089;-79
2021/07/26 11:15:54;;;;;;;6.30;4.00;;;;;;;;;;4674311;30;20069;-79
2021/07/26 11:18:37;;;;;;;7.63;4.18;;;;;;;;;;4682810;30;20040;-79
2021/07/26 11:21:13;;;;;;;5.43;3.85;;;;;;;;;;4692519;30;20064;-79
2021/07/26 11:23:44;;;;;;;5.38;3.78;;;;;;;;;;4673979;30;20779;-78
2021/07/26 11:26:30;;;;;;;5.35;3.80;;;;;;;;;;4676182;30;20772;-79
2021/07/26 11:29:11;;;;;;;5.35;3.55;;;;;;;;;;4672937;30;20132;-79
2021/07/26 11:31:40;;;;;;;7.53;4.00;;;;;;;;;;4666637;30;20041;-79
2021/07/26 11:34:13;;;;;;;5.88;3.92;;;;;;;;;;4675863;30;20513;-78
2021/07/26 11:37:05;;;;;;;8.45;4.07;;;;;;;;;;4689485;30;20034;-79
2021/07/26 11:39:50;;;;;;;5.25;3.88;;;;;;;;;;4682274;30;20057;-79
2021/07/26 11:42:19;;;;;;;6.38;3.60;;;;;;;;;;4669240;30;20036;-79
2021/07/26 11:44:47;;;;;;;5.70;4.18;;;;;;;;;;4687680;30;20037;-79
2021/07/26 11:47:15;;;;;;;6.40;3.20;;;;;;;;;;4684573;30;20605;-79
2021/07/26 11:49:49;;;;;;;6.05;3.60;;;;;;;;;;4675479;30;20042;-79
2021/07/26 11:52:15;;;;;;;5.55;3.40;;;;;;;;;;4690071;30;20404;-79
2021/07/26 11:54:40;;;;;;;5.68;3.28;;;;;;;;;;4676862;30;20033;-79
2021/07/26 11:57:11;;;;;;;4.78;3.00;;;;;;;;;;4663465;30;20842;-79
2021/07/26 11:59:37;;;;;;;5.90;3.42;;;;;;;;;;4679560;30;20085;-79
2021/07/26 12:02:31;;;;;;;4.63;2.78;;;;;;;;;;4688167;30;20072;-79
2021/07/26 12:05:09;;;;;;;6.18;3.00;;;;;;;;;;4675814;30;20341;-79
2021/07/26 12:07:45;;;;;;;6.38;2.95;;;;;;;;;;4669055;30;20040;-79
2021/07/26 12:10:12;;;;;;;5.05;3.20;;;;;;;;;;4679911;30;20050;-79
2021/07/26 12:12:39;;;;;;;7.32;3.80;;;;;;;;;;4676898;30;20132;-79
2021/07/26 12:15:41;;;;;;;8.52;4.25;;;;;;;;;;4672453;30;20407;-79
2021/07/26 12:18:11;;;;;;;8.13;4.63;;;;;;;;;;4636460;30;20137;-79
2021/07/26 12:20:39;;;;;;;6.20;4.30;;;;;;;;;;4679265;30;20049;-79
2021/07/26 12:23:19;;;;;;;7.70;4.60;;;;;;;;;;4673952;30;20125;-78
2021/07/26 12:25:47;;;;;;;7.82;5.05;;;;;;;;;;4689831;30;20049;-79
2021/07/26 12:28:13;;;;;;;7.93;5.25;;;;;;;;;;4677471;30;20156;-79
2021/07/26 12:30:41;;;;;;;12.30;5.13;;;;;;;;;;4668260;30;20065;-78
2021/07/26 12:33:07;;;;;;;6.75;4.70;;;;;;;;;;4671264;30;20124;-79
2021/07/26 12:35:33;;;;;;;7.80;5.63;;;;;;;;;;4691632;30;20037;-79
2021/07/26 12:38:02;;;;;;;7.32;4.72;;;;;;;;;;4671048;30;20034;-79
2021/07/26 12:40:29;;;;;;;6.38;4.10;;;;;;;;;;4690946;30;20033;-79
2021/07/26 12:43:16;;;;;;;5.68;4.03;;;;;;;;;;4674320;30;20050;-79
2021/07/26 12:45:55;;;;;;;8.50;5.45;;;;;;;;;;4685998;30;20033;-79
2021/07/26 12:48:22;;;;;;;6.63;5.78;;;;;;;;;;4680929;30;20046;-79
2021/07/26 12:50:49;;;;;;;8.27;5.78;;;;;;;;;;4673310;30;20061;-79
2021/07/26 12:53:15;;;;;;;7.32;6.30;;;;;;;;;;4669540;30;20042;-79
2021/07/26 12:55:42;;;;;;;10.45;6.72;;;;;;;;;;4675369;30;20042;-79
2021/07/26 12:58:08;;;;;;;10.35;7.68;;;;;;;;;;4671836;30;20148;-79
2021/07/26 13:00:34;;;;;;;9.25;7.18;;;;;;;;;;4665724;30;20034;-79
2021/07/26 13:03:01;;;;;;;9.15;7.35;;;;;;;;;;4691399;30;20048;-79
2021/07/26 13:05:27;;;;;;;10.25;7.88;;;;;;;;;;4687249;30;20064;-79
2021/07/26 13:07:53;;;;;;;9.88;7.78;;;;;;;;;;4674619;30;20053;-79
2021/07/26 13:10:18;;;;;;;8.80;6.88;;;;;;;;;;4671255;30;20045;-78
2021/07/26 13:12:44;;;;;;;9.25;6.55;;;;;;;;;;4668623;30;20048;-79
2021/07/26 13:15:09;;;;;;;10.07;6.90;;;;;;;;;;4669170;30;20056;-79
2021/07/26 13:17:35;;;;;;;9.48;7.00;;;;;;;;;;4679507;30;20140;-79
2021/07/26 13:20:00;;;;;;;9.30;6.53;;;;;;;;;;4663925;30;20376;-79
2021/07/26 13:22:26;;;;;;;9.25;6.78;;;;;;;;;;4685340;30;20145;-79
2021/07/26 13:24:51;;;;;;;10.02;7.10;;;;;;;;;;4689685;30;20467;-79
2021/07/26 13:27:17;;;;;;;9.98;6.50;;;;;;;;;;4689181;30;20499;-79
2021/07/26 13:29:42;;;;;;;11.32;8.10;;;;;;;;;;4684592;30;20044;-79
2021/07/26 13:32:08;;;;;;;9.10;6.25;;;;;;;;;;4691639;30;20554;-79
2021/07/26 13:34:33;;;;;;;8.32;6.63;;;;;;;;;;4663610;30;20124;-79
2021/07/26 13:36:58;;;;;;;8.98;7.63;;;;;;;;;;4665942;30;20077;-79
2021/07/26 13:39:25;;;;;;;8.95;6.90;;;;;;;;;;4686019;30;20038;-79
2021/07/26 13:41:55;;;;;;;8.30;6.68;;;;;;;;;;4663591;30;20143;-79
2021/07/26 13:44:23;;;;;;;9.70;7.45;;;;;;;;;;4676355;30;20038;-79
2021/07/26 13:46:49;;;;;;;7.97;6.82;;;;;;;;;;4671696;30;20462;-79
2021/07/26 13:49:15;;;;;;;9.98;6.63;;;;;;;;;;4659630;30;20185;-78
2021/07/26 13:51:41;;;;;;;11.07;6.72;;;;;;;;;;4671368;30;20041;-79
2021/07/26 13:54:06;;;;;;;6.97;6.18;;;;;;;;;;4662235;30;20544;-79
2021/07/26 13:56:32;;;;;;;9.77;6.80;;;;;;;;;;4695028;30;20525;-79
2021/07/26 13:58:57;;;;;;;8.35;6.55;;;;;;;;;;4666982;30;20050;-78
2021/07/26 14:01:22;;;;;;;11.02;6.68;;;;;;;;;;4673855;30;20458;-78
2021/07/26 14:03:48;;;;;;;8.38;6.70;;;;;;;;;;4671035;30;20046;-79
2021/07/26 14:06:13;;;;;;;8.23;6.85;;;;;;;;;;4675900;30;20902;-78
2021/07/26 14:08:39;;;;;;;8.27;6.50;;;;;;;;;;4672677;30;20096;-79
2021/07/26 14:11:04;;;;;;;8.65;7.18;;;;;;;;;;4664761;30;20109;-78
2021/07/26 14:13:29;;;;;;;10.38;7.93;;;;;;;;;;4669652;30;20057;-78
2021/07/26 14:15:55;;;;;;;10.95;7.75;;;;;;;;;;4662851;30;20038;-78
2021/07/26 14:18:20;;;;;;;8.48;7.07;;;;;;;;;;4664434;30;20128;-79
2021/07/26 14:20:46;;;;;;;10.05;7.32;;;;;;;;;;4674567;30;20077;-79
2021/07/26 14:23:11;;;;;;;9.75;7.53;;;;;;;;;;4687828;30;20060;-79
2021/07/26 14:25:38;;;;;;;9.27;6.63;;;;;;;;;;4691719;30;20081;-78
2021/07/26 14:28:03;;;;;;;8.55;6.80;;;;;;;;;;4682248;30;20073;-79
2021/07/26 14:30:29;;;;;;;11.63;7.15;;;;;;;;;;4662937;30;20495;-79
2021/07/26 14:32:54;;;;;;;10.05;7.45;;;;;;;;;;4687325;30;20052;-79
2021/07/26 14:35:20;;;;;;;10.20;7.43;;;;;;;;;;4670871;30;20048;-79
2021/07/26 14:37:45;;;;;;;11.60;8.75;;;;;;;;;;4674221;30;20090;-79
2021/07/26 14:40:11;;;;;;;12.13;8.93;;;;;;;;;;4658101;30;20063;-79
2021/07/26 14:42:37;;;;;;;9.88;7.47;;;;;;;;;;4672016;30;20636;-79
2021/07/26 14:45:03;;;;;;;10.82;7.38;;;;;;;;;;4662985;30;20129;-79
2021/07/26 14:47:28;;;;;;;9.23;6.40;;;;;;;;;;4673044;30;20038;-78